Time;durP1;ratioP1;P1;durP2;ratioP2;P2;SDS_P1;SDS_P2;PMS_P1;PMS_P2;Temp;Humidity;BMP_temperature;BMP_pressure;BME280_temperature;BME280_humidity;BME280_pressure;Samples;Min_cycle;Max_cycle;Signal;HPM_P1;HPM_P2
2021/10/16 00:01:51;;;;;;;10.55;2.83;;;10.40;95.90;;;;;;5033051;28;20049;-70
2021/10/16 00:04:17;;;;;;;11.18;2.53;;;10.40;95.80;;;;;;5031267;28;20090;-70
2021/10/16 00:06:42;;;;;;;9.40;2.15;;;10.40;95.90;;;;;;5032308;28;20052;-70
2021/10/16 00:09:08;;;;;;;15.10;2.00;;;10.40;95.80;;;;;;5032256;28;20056;-70
2021/10/16 00:11:33;;;;;;;12.40;2.15;;;10.30;96.00;;;;;;5031992;28;20029;-69
2021/10/16 00:13:59;;;;;;;13.23;2.10;;;10.30;96.00;;;;;;5031205;28;20036;-69
2021/10/16 00:16:25;;;;;;;8.30;1.90;;;10.40;96.00;;;;;;5032322;28;20367;-69
2021/10/16 00:18:51;;;;;;;14.40;2.50;;;10.30;96.00;;;;;;5032077;28;20030;-69
2021/10/16 00:21:17;;;;;;;13.55;1.98;;;10.20;96.00;;;;;;5032126;28;20040;-71
2021/10/16 00:23:42;;;;;;;11.50;2.33;;;10.30;96.10;;;;;;5031763;28;20029;-71
2021/10/16 00:26:08;;;;;;;12.90;2.03;;;10.30;96.00;;;;;;5032074;28;20025;-71
2021/10/16 00:28:33;;;;;;;16.70;2.10;;;10.30;96.00;;;;;;5032205;28;20112;-70
2021/10/16 00:30:59;;;;;;;12.13;1.77;;;10.30;96.10;;;;;;5031818;28;20072;-71
2021/10/16 00:33:25;;;;;;;17.95;2.83;;;10.30;96.20;;;;;;5031998;28;20344;-70
2021/10/16 00:35:50;;;;;;;16.35;2.20;;;10.30;96.10;;;;;;5031671;28;20091;-70
2021/10/16 00:38:16;;;;;;;15.02;1.88;;;10.30;96.20;;;;;;5031851;28;20037;-70
2021/10/16 00:40:42;;;;;;;9.27;1.98;;;10.30;96.20;;;;;;5031922;28;20079;-71
2021/10/16 00:43:08;;;;;;;13.80;2.10;;;10.20;96.20;;;;;;5030667;28;20372;-71
2021/10/16 00:45:34;;;;;;;12.20;2.33;;;10.20;96.30;;;;;;5031386;28;20199;-71
2021/10/16 00:47:59;;;;;;;8.80;1.63;;;10.20;96.30;;;;;;5032063;28;20026;-71
2021/10/16 00:50:25;;;;;;;13.68;3.03;;;10.20;96.30;;;;;;5030614;28;20398;-71
2021/10/16 00:52:51;;;;;;;12.13;2.15;;;10.20;96.30;;;;;;5031789;28;20029;-71
2021/10/16 00:55:18;;;;;;;16.70;3.35;;;10.20;96.50;;;;;;5031410;28;20103;-71
2021/10/16 00:57:45;;;;;;;16.85;3.22;;;10.10;96.50;;;;;;5030270;28;20533;-71
2021/10/16 01:00:11;;;;;;;12.90;2.63;;;10.20;96.50;;;;;;5031405;28;20029;-71
2021/10/16 01:02:37;;;;;;;14.02;1.88;;;10.20;96.40;;;;;;5030249;28;20364;-71
2021/10/16 01:05:05;;;;;;;6.78;2.30;;;10.20;96.40;;;;;;5031966;28;20025;-70
2021/10/16 01:07:31;;;;;;;8.25;2.42;;;10.20;96.40;;;;;;5031439;28;20049;-70
2021/10/16 01:09:57;;;;;;;14.52;2.30;;;10.20;96.40;;;;;;5031059;28;20103;-71
2021/10/16 01:12:23;;;;;;;9.25;2.05;;;10.30;96.50;;;;;;5031226;28;20506;-71
2021/10/16 01:14:56;;;;;;;16.02;2.35;;;10.30;96.50;;;;;;5031267;28;20033;-71
2021/10/16 01:17:22;;;;;;;18.90;2.15;;;10.40;96.50;;;;;;5030265;28;20044;-71
2021/10/16 01:19:54;;;;;;;10.90;2.10;;;10.40;96.50;;;;;;5031563;28;20076;-71
2021/10/16 01:22:20;;;;;;;19.10;3.03;;;10.50;96.40;;;;;;5031248;28;20048;-71
2021/10/16 01:24:47;;;;;;;14.35;2.17;;;10.60;96.30;;;;;;5031140;28;20091;-70
2021/10/16 01:27:13;;;;;;;13.70;1.98;;;10.70;96.20;;;;;;5031242;28;20090;-70
2021/10/16 01:29:39;;;;;;;10.23;1.60;;;10.80;96.10;;;;;;5031140;28;20120;-71
2021/10/16 01:32:05;;;;;;;11.73;1.58;;;10.80;96.00;;;;;;5031342;28;20374;-71
2021/10/16 01:34:31;;;;;;;12.07;1.90;;;10.70;96.00;;;;;;5031466;28;20029;-71
2021/10/16 01:36:57;;;;;;;10.00;2.13;;;10.80;96.20;;;;;;5048290;28;20112;-71
2021/10/16 01:39:23;;;;;;;12.98;1.58;;;10.70;96.00;;;;;;5051141;28;20128;-71
2021/10/16 01:41:49;;;;;;;8.73;1.67;;;10.70;96.00;;;;;;5050865;28;20060;-70
2021/10/16 01:44:15;;;;;;;7.45;2.17;;;10.70;96.00;;;;;;5050888;28;20044;-71
2021/10/16 01:46:41;;;;;;;12.05;1.85;;;10.70;96.00;;;;;;5051418;28;20017;-71
2021/10/16 01:49:15;;;;;;;10.50;2.05;;;10.70;96.00;;;;;;5051218;28;20029;-71
2021/10/16 01:51:42;;;;;;;15.40;2.13;;;10.70;96.00;;;;;;5051071;28;20049;-71
2021/10/16 01:54:09;;;;;;;12.52;2.13;;;10.70;95.90;;;;;;5050702;28;20022;-70
2021/10/16 01:56:35;;;;;;;10.45;1.73;;;10.80;96.10;;;;;;5051028;28;20021;-70
2021/10/16 01:59:13;;;;;;;15.98;1.60;;;10.80;95.90;;;;;;5051055;28;20025;-71
2021/10/16 02:01:39;;;;;;;11.13;1.85;;;10.80;96.00;;;;;;5051139;28;20052;-71
2021/10/16 02:04:04;;;;;;;14.02;1.88;;;10.80;95.90;;;;;;5052718;28;20029;-71
2021/10/16 02:06:30;;;;;;;8.25;1.45;;;10.70;95.80;;;;;;5054524;28;20033;-71
2021/10/16 02:08:55;;;;;;;12.32;1.65;;;10.70;95.90;;;;;;5054197;28;20021;-71
2021/10/16 02:11:21;;;;;;;12.05;2.42;;;10.70;96.00;;;;;;5054367;28;20515;-70
2021/10/16 02:13:47;;;;;;;16.38;3.05;;;10.70;96.00;;;;;;5054789;28;20104;-71
2021/10/16 02:16:12;;;;;;;12.77;2.65;;;10.70;96.00;;;;;;5054258;28;20041;-71
2021/10/16 02:18:38;;;;;;;16.05;1.88;;;10.90;96.00;;;;;;5054544;28;20631;-71
2021/10/16 02:21:03;;;;;;;11.10;1.90;;;10.70;95.90;;;;;;5054058;28;20083;-71
2021/10/16 02:23:29;;;;;;;11.40;1.73;;;10.70;96.00;;;;;;5054620;28;20083;-71
2021/10/16 02:25:54;;;;;;;10.98;1.80;;;10.60;96.00;;;;;;5054785;28;20025;-71
2021/10/16 02:28:21;;;;;;;9.18;1.92;;;10.60;96.30;;;;;;5054328;28;20546;-71
2021/10/16 02:30:46;;;;;;;11.15;1.98;;;10.60;96.20;;;;;;5054025;28;20459;-71
2021/10/16 02:33:12;;;;;;;10.63;1.80;;;10.60;96.30;;;;;;5054038;28;20098;-71
2021/10/16 02:35:37;;;;;;;17.38;2.60;;;10.60;96.30;;;;;;5054190;28;20109;-71
2021/10/16 02:38:03;;;;;;;14.65;2.53;;;10.60;96.30;;;;;;5053992;28;20039;-71
2021/10/16 02:40:30;;;;;;;12.65;2.20;;;10.60;96.30;;;;;;5054090;28;20037;-71
2021/10/16 02:42:56;;;;;;;18.25;2.10;;;10.50;96.30;;;;;;5053702;28;20025;-71
2021/10/16 02:45:22;;;;;;;14.75;2.30;;;10.50;96.40;;;;;;5053943;28;20063;-71
2021/10/16 02:47:48;;;;;;;8.98;2.40;;;10.50;96.70;;;;;;5053780;28;20078;-71
2021/10/16 02:50:13;;;;;;;8.43;2.00;;;10.50;96.40;;;;;;5053650;28;20025;-71
2021/10/16 02:52:39;;;;;;;10.05;2.10;;;10.40;96.40;;;;;;5054236;28;20025;-71
2021/10/16 02:55:05;;;;;;;15.75;2.28;;;10.40;96.50;;;;;;5053473;28;20163;-71
2021/10/16 02:57:32;;;;;;;11.35;1.80;;;10.30;96.40;;;;;;5053651;28;20029;-70
2021/10/16 02:59:58;;;;;;;11.75;2.65;;;10.30;96.50;;;;;;5053672;28;20383;-71
2021/10/16 03:02:23;;;;;;;12.65;2.17;;;10.30;96.50;;;;;;5053469;28;20037;-70
2021/10/16 03:04:49;;;;;;;12.18;2.47;;;10.40;96.50;;;;;;5053775;28;20113;-70
2021/10/16 03:07:16;;;;;;;11.95;1.58;;;10.30;96.40;;;;;;5053493;28;20098;-71
2021/10/16 03:09:42;;;;;;;14.43;2.28;;;10.30;96.50;;;;;;5053122;28;20056;-70
2021/10/16 03:12:07;;;;;;;16.13;1.50;;;10.30;96.60;;;;;;5053247;28;20029;-70
2021/10/16 03:14:33;;;;;;;9.07;2.17;;;10.30;96.60;;;;;;5052828;28;20397;-70
2021/10/16 03:16:58;;;;;;;8.38;2.00;;;10.30;96.60;;;;;;5053483;28;20025;-70
2021/10/16 03:19:24;;;;;;;12.23;2.38;;;10.10;96.60;;;;;;5053093;28;20332;-69
2021/10/16 03:21:49;;;;;;;13.10;2.15;;;10.00;96.80;;;;;;5053251;28;20051;-70
2021/10/16 03:24:15;;;;;;;14.00;2.65;;;10.00;97.00;;;;;;5053079;28;20389;-70
2021/10/16 03:26:40;;;;;;;10.02;1.80;;;10.10;96.90;;;;;;5053071;28;20095;-70
2021/10/16 03:29:06;;;;;;;14.70;2.50;;;10.20;96.80;;;;;;5052880;28;20029;-70
2021/10/16 03:31:31;;;;;;;11.05;2.30;;;10.10;96.80;;;;;;5053556;28;20017;-70
2021/10/16 03:33:57;;;;;;;17.77;2.55;;;10.10;96.80;;;;;;5052820;28;20512;-69
2021/10/16 03:36:23;;;;;;;5.55;1.52;;;10.20;96.70;;;;;;5052874;28;20041;-70
2021/10/16 03:38:48;;;;;;;12.30;1.50;;;10.20;96.70;;;;;;5052807;28;20394;-70
2021/10/16 03:41:14;;;;;;;11.52;1.45;;;10.20;96.70;;;;;;5051604;28;20391;-70
2021/10/16 03:43:39;;;;;;;13.20;1.67;;;10.20;96.60;;;;;;5053276;28;20032;-70
2021/10/16 03:46:05;;;;;;;7.60;1.98;;;10.10;96.60;;;;;;5052651;28;20128;-70
2021/10/16 03:48:30;;;;;;;11.50;1.73;;;10.10;96.60;;;;;;5052626;28;20485;-71
2021/10/16 03:50:56;;;;;;;12.88;2.00;;;10.10;96.60;;;;;;5052381;28;20033;-71
2021/10/16 03:53:21;;;;;;;7.47;1.73;;;10.20;96.60;;;;;;5052484;28;20029;-69
2021/10/16 03:55:47;;;;;;;12.48;2.13;;;10.20;96.50;;;;;;5052868;28;20021;-70
2021/10/16 03:58:13;;;;;;;15.07;2.08;;;10.30;96.50;;;;;;5052435;28;20033;-69
2021/10/16 04:00:39;;;;;;;9.82;2.10;;;10.30;96.50;;;;;;5052483;28;20061;-70
2021/10/16 04:03:06;;;;;;;11.90;1.88;;;10.30;96.40;;;;;;5052234;28;20025;-70
2021/10/16 04:05:33;;;;;;;14.25;1.45;;;10.30;96.40;;;;;;5052406;28;20090;-70
2021/10/16 04:07:58;;;;;;;13.65;2.58;;;10.30;96.40;;;;;;5052479;28;20355;-70
2021/10/16 04:10:27;;;;;;;13.65;2.38;;;10.20;96.30;;;;;;5051873;28;20052;-70
2021/10/16 04:12:52;;;;;;;10.57;1.60;;;10.20;96.40;;;;;;5052183;28;20029;-70
2021/10/16 04:15:18;;;;;;;8.15;1.83;;;10.30;96.40;;;;;;5051898;28;20047;-70
2021/10/16 04:17:48;;;;;;;8.13;1.77;;;10.20;96.30;;;;;;5052048;28;20029;-71
2021/10/16 04:20:14;;;;;;;9.73;1.92;;;10.20;96.40;;;;;;5052088;28;20096;-71
2021/10/16 04:22:40;;;;;;;19.25;2.40;;;10.10;96.50;;;;;;5052376;28;20104;-71
2021/10/16 04:25:06;;;;;;;16.70;2.65;;;10.20;96.50;;;;;;5051825;28;20110;-70
2021/10/16 04:27:32;;;;;;;8.35;1.52;;;10.20;96.50;;;;;;5051253;28;20063;-71
2021/10/16 04:29:57;;;;;;;15.48;2.47;;;10.20;96.40;;;;;;5052017;28;20033;-71
2021/10/16 04:32:23;;;;;;;13.93;1.85;;;10.10;96.40;;;;;;5050676;28;20118;-71
2021/10/16 04:34:48;;;;;;;15.68;2.28;;;10.10;96.50;;;;;;5052224;28;20113;-71
2021/10/16 04:37:15;;;;;;;18.33;2.20;;;10.10;96.40;;;;;;5051671;28;20033;-71
2021/10/16 04:39:41;;;;;;;11.65;1.75;;;10.10;96.40;;;;;;5051876;28;20112;-71
2021/10/16 04:42:06;;;;;;;11.80;2.28;;;10.10;96.50;;;;;;5051542;28;20515;-71
2021/10/16 04:44:32;;;;;;;8.55;1.27;;;10.20;96.30;;;;;;5051367;28;20037;-71
2021/10/16 04:46:58;;;;;;;8.82;1.80;;;10.10;96.30;;;;;;5052029;28;20111;-71
2021/10/16 04:49:24;;;;;;;13.73;2.05;;;10.10;96.40;;;;;;5051344;28;20211;-71
2021/10/16 04:51:49;;;;;;;18.02;2.97;;;10.10;96.40;;;;;;5051620;28;20525;-71
2021/10/16 04:54:15;;;;;;;11.35;2.28;;;10.10;96.40;;;;;;5051171;28;20546;-70
2021/10/16 04:56:41;;;;;;;14.65;2.50;;;10.10;96.50;;;;;;5051540;28;20097;-70
2021/10/16 04:59:06;;;;;;;10.73;2.08;;;10.10;96.50;;;;;;5051331;28;20092;-71
2021/10/16 05:01:32;;;;;;;14.63;2.67;;;10.20;96.50;;;;;;5051670;28;20025;-71
2021/10/16 05:03:57;;;;;;;9.75;2.22;;;10.20;96.40;;;;;;5051432;28;20099;-70
2021/10/16 05:06:23;;;;;;;11.35;2.33;;;10.20;96.50;;;;;;5051302;28;20025;-71
2021/10/16 05:08:48;;;;;;;10.50;1.85;;;10.10;96.30;;;;;;5051524;28;20029;-70
2021/10/16 05:11:14;;;;;;;12.30;2.72;;;10.20;96.50;;;;;;5051409;28;20439;-70
2021/10/16 05:13:39;;;;;;;15.30;2.45;;;10.20;96.50;;;;;;5051654;28;20025;-70
2021/10/16 05:16:05;;;;;;;13.00;2.00;;;10.20;96.40;;;;;;5051080;28;20072;-70
2021/10/16 05:18:31;;;;;;;13.18;2.03;;;10.20;96.30;;;;;;5051033;28;20469;-70
2021/10/16 05:20:57;;;;;;;11.63;2.20;;;10.20;96.30;;;;;;5051078;28;20048;-71
2021/10/16 05:23:23;;;;;;;12.60;2.25;;;10.30;96.30;;;;;;5050990;28;20079;-71
2021/10/16 05:25:49;;;;;;;13.85;2.05;;;10.20;96.20;;;;;;5051807;28;20025;-71
2021/10/16 05:28:14;;;;;;;16.17;2.65;;;10.20;96.30;;;;;;5051028;28;20037;-70
2021/10/16 05:30:40;;;;;;;14.00;2.70;;;10.20;96.30;;;;;;5051105;28;20118;-70
2021/10/16 05:33:05;;;;;;;12.00;2.33;;;10.20;96.30;;;;;;5050997;28;20401;-71
2021/10/16 05:35:31;;;;;;;9.70;2.10;;;10.30;96.40;;;;;;5050914;28;20041;-71
2021/10/16 05:37:57;;;;;;;13.52;2.22;;;10.30;96.40;;;;;;5053185;28;20094;-71
2021/10/16 05:40:23;;;;;;;10.52;2.35;;;10.20;96.40;;;;;;5053953;28;20036;-71
2021/10/16 05:42:48;;;;;;;12.30;2.00;;;10.30;96.40;;;;;;5055193;28;20029;-71
2021/10/16 05:45:14;;;;;;;12.68;1.85;;;10.30;96.40;;;;;;5054930;28;20086;-71
2021/10/16 05:47:41;;;;;;;11.80;2.10;;;10.40;96.40;;;;;;5054686;28;20070;-71
2021/10/16 05:50:09;;;;;;;11.25;1.80;;;10.40;96.40;;;;;;5055213;28;20028;-71
2021/10/16 05:52:35;;;;;;;13.55;2.40;;;10.40;96.40;;;;;;5055085;28;20017;-71
2021/10/16 05:55:03;;;;;;;10.95;2.28;;;10.40;96.30;;;;;;5054686;28;20052;-71
2021/10/16 05:57:28;;;;;;;8.43;1.93;;;10.30;96.40;;;;;;5051836;28;20067;-72
2021/10/16 05:59:54;;;;;;;13.85;2.17;;;10.40;96.40;;;;;;5055064;28;20443;-71
2021/10/16 06:02:19;;;;;;;11.13;2.55;;;10.40;96.20;;;;;;5054798;28;20501;-72
2021/10/16 06:04:45;;;;;;;7.90;1.85;;;10.50;96.30;;;;;;5055580;28;20439;-70
2021/10/16 06:07:10;;;;;;;14.80;2.47;;;10.50;96.30;;;;;;5054926;28;20045;-71
2021/10/16 06:09:36;;;;;;;15.27;2.28;;;10.60;96.30;;;;;;5054234;28;20479;-70
2021/10/16 06:12:01;;;;;;;11.80;2.00;;;10.60;96.30;;;;;;5054604;28;20083;-71
2021/10/16 06:14:27;;;;;;;10.88;1.95;;;10.60;96.40;;;;;;5054640;28;20025;-72
2021/10/16 06:16:52;;;;;;;9.20;1.30;;;10.50;96.30;;;;;;5055139;28;20362;-71
2021/10/16 06:19:19;;;;;;;11.60;2.30;;;10.50;96.40;;;;;;5054656;28;20424;-71
2021/10/16 06:21:44;;;;;;;13.57;3.05;;;10.50;96.50;;;;;;5054560;28;20417;-71
2021/10/16 06:24:11;;;;;;;9.13;2.00;;;10.50;96.60;;;;;;5054581;28;20028;-70
2021/10/16 06:26:36;;;;;;;10.52;2.00;;;10.30;96.60;;;;;;5054034;28;20439;-71
2021/10/16 06:29:02;;;;;;;7.63;1.55;;;10.50;96.80;;;;;;5053720;28;20021;-70
2021/10/16 06:31:27;;;;;;;11.95;1.83;;;10.50;96.90;;;;;;5054425;28;20025;-71
2021/10/16 06:33:53;;;;;;;9.90;1.52;;;10.50;96.60;;;;;;5053151;28;20091;-72
2021/10/16 06:36:19;;;;;;;12.35;2.47;;;10.50;96.60;;;;;;5053976;28;20047;-71
2021/10/16 06:38:44;;;;;;;7.70;1.77;;;10.50;96.60;;;;;;5053092;28;20024;-71
2021/10/16 06:41:10;;;;;;;6.78;1.58;;;10.60;96.60;;;;;;5054171;28;20029;-71
2021/10/16 06:43:35;;;;;;;9.48;2.25;;;10.50;96.40;;;;;;5054466;28;20021;-72
2021/10/16 06:46:01;;;;;;;5.30;1.90;;;10.50;96.50;;;;;;5054173;28;20036;-71
2021/10/16 06:48:26;;;;;;;3.55;1.58;;;10.50;96.50;;;;;;5053570;28;20058;-71
2021/10/16 06:50:52;;;;;;;10.60;1.98;;;10.50;96.40;;;;;;5053528;28;20017;-72
2021/10/16 06:53:17;;;;;;;9.20;2.13;;;10.50;96.30;;;;;;5053699;28;20021;-71
2021/10/16 06:55:43;;;;;;;14.30;3.35;;;10.50;96.40;;;;;;5053986;28;20021;-72
2021/10/16 06:58:09;;;;;;;13.50;3.22;;;10.50;96.40;;;;;;5053993;28;20067;-72
2021/10/16 07:00:35;;;;;;;8.98;2.00;;;10.50;96.50;;;;;;5053645;28;20027;-71
2021/10/16 07:03:02;;;;;;;12.40;2.50;;;10.50;96.50;;;;;;5053999;28;20647;-73
2021/10/16 07:05:28;;;;;;;11.70;2.67;;;10.50;96.40;;;;;;5053720;28;20447;-72
2021/10/16 07:07:53;;;;;;;11.65;2.42;;;10.50;96.50;;;;;;5053712;28;20021;-72
2021/10/16 07:10:19;;;;;;;7.97;1.77;;;10.60;96.50;;;;;;5053273;28;20047;-72
2021/10/16 07:12:45;;;;;;;11.30;2.30;;;10.70;96.30;;;;;;5053506;28;20056;-72
2021/10/16 07:15:10;;;;;;;14.63;2.45;;;10.60;96.20;;;;;;5053692;28;20037;-71
2021/10/16 07:17:36;;;;;;;10.48;2.38;;;10.60;96.20;;;;;;5053369;28;20039;-71
2021/10/16 07:20:04;;;;;;;7.85;2.70;;;10.60;96.30;;;;;;5054040;28;20063;-75
2021/10/16 07:22:29;;;;;;;11.23;2.40;;;10.60;96.40;;;;;;5053179;28;20060;-75
2021/10/16 07:24:55;;;;;;;10.55;2.95;;;10.60;96.40;;;;;;5053163;28;20075;-75
2021/10/16 07:27:20;;;;;;;10.38;2.53;;;10.70;96.30;;;;;;5053119;28;20127;-74
2021/10/16 07:29:46;;;;;;;10.68;3.47;;;10.80;96.60;;;;;;5051769;28;20051;-71
2021/10/16 07:32:12;;;;;;;7.43;2.20;;;10.80;96.30;;;;;;5052995;28;20107;-73
2021/10/16 07:34:37;;;;;;;10.02;2.78;;;10.90;96.20;;;;;;5053050;28;20025;-73
2021/10/16 07:37:03;;;;;;;15.45;3.22;;;10.80;96.20;;;;;;5052884;28;20039;-72
2021/10/16 07:39:28;;;;;;;12.30;2.95;;;10.80;96.30;;;;;;5052760;28;20102;-72
2021/10/16 07:41:54;;;;;;;6.75;2.10;;;10.90;96.30;;;;;;5052734;28;20028;-72
2021/10/16 07:44:20;;;;;;;16.17;2.88;;;10.90;96.20;;;;;;5052572;28;20018;-72
2021/10/16 07:46:47;;;;;;;8.10;2.25;;;10.90;96.10;;;;;;5052905;28;20048;-72
2021/10/16 07:49:12;;;;;;;16.17;2.67;;;10.90;96.00;;;;;;5052659;28;20041;-71
2021/10/16 07:51:38;;;;;;;9.60;2.80;;;10.90;96.00;;;;;;5052391;28;20029;-71
2021/10/16 07:54:04;;;;;;;14.77;3.40;;;11.00;96.00;;;;;;5052487;28;20454;-72
2021/10/16 07:56:29;;;;;;;10.38;2.72;;;11.00;96.00;;;;;;5052086;28;20037;-71
2021/10/16 07:58:56;;;;;;;8.77;3.10;;;11.10;96.10;;;;;;5052593;28;20024;-71
2021/10/16 08:01:22;;;;;;;11.77;2.42;;;11.20;96.10;;;;;;5051521;28;20040;-71
2021/10/16 08:03:47;;;;;;;10.70;2.45;;;11.30;96.20;;;;;;5052216;28;20267;-71
2021/10/16 08:06:13;;;;;;;12.15;3.17;;;11.50;96.20;;;;;;5052281;28;20061;-71
2021/10/16 08:08:39;;;;;;;12.15;3.05;;;11.60;96.00;;;;;;5034244;28;20037;-72
2021/10/16 08:11:04;;;;;;;11.27;3.05;;;11.50;95.70;;;;;;5031783;28;20597;-73
2021/10/16 08:13:31;;;;;;;9.70;2.00;;;11.60;95.80;;;;;;5032369;28;20045;-72
2021/10/16 08:15:58;;;;;;;10.45;2.58;;;11.70;95.50;;;;;;5030746;28;20115;-70
2021/10/16 08:18:24;;;;;;;9.60;2.33;;;11.80;95.40;;;;;;5032005;28;20115;-69
2021/10/16 08:20:50;;;;;;;16.60;7.47;;;11.80;95.40;;;;;;5031989;28;20459;-71
2021/10/16 08:23:15;;;;;;;14.40;2.90;;;11.90;95.40;;;;;;5031870;28;20029;-70
2021/10/16 08:25:41;;;;;;;8.82;2.85;;;11.80;95.10;;;;;;5032361;28;20025;-69
2021/10/16 08:28:09;;;;;;;8.38;2.70;;;11.90;95.30;;;;;;5030796;28;20033;-70
2021/10/16 08:30:34;;;;;;;8.20;2.40;;;11.90;95.30;;;;;;5031640;28;20029;-69
2021/10/16 08:33:00;;;;;;;9.30;2.35;;;12.00;95.20;;;;;;5032066;28;20035;-69
2021/10/16 08:35:26;;;;;;;10.18;2.55;;;11.90;94.90;;;;;;5030814;28;20044;-70
2021/10/16 08:37:51;;;;;;;9.20;2.38;;;12.00;95.20;;;;;;5030901;28;20034;-69
2021/10/16 08:40:17;;;;;;;8.13;2.17;;;12.00;95.10;;;;;;5031656;28;20029;-71
2021/10/16 08:42:42;;;;;;;13.70;2.38;;;12.10;95.10;;;;;;5031586;28;20527;-72
2021/10/16 08:45:08;;;;;;;10.95;2.63;;;12.10;95.10;;;;;;5031622;28;20021;-72
2021/10/16 08:47:38;;;;;;;10.05;2.50;;;12.00;95.20;;;;;;5031714;28;20345;-74
2021/10/16 08:50:06;;;;;;;7.50;2.35;;;12.00;95.20;;;;;;5032074;28;20144;-72
2021/10/16 08:52:32;;;;;;;8.98;2.50;;;12.10;95.20;;;;;;5030615;28;20121;-72
2021/10/16 08:54:57;;;;;;;12.27;2.55;;;12.40;95.40;;;;;;5031230;28;20124;-72
2021/10/16 08:57:30;;;;;;;11.00;2.33;;;12.50;95.00;;;;;;5031467;28;20037;-73
2021/10/16 08:59:56;;;;;;;5.75;2.45;;;12.80;95.20;;;;;;5031228;28;20095;-73
2021/10/16 09:02:22;;;;;;;13.93;3.15;;;13.10;95.10;;;;;;5031429;28;20044;-74
2021/10/16 09:04:47;;;;;;;9.50;2.30;;;13.30;94.70;;;;;;5031569;28;20100;-72
2021/10/16 09:07:24;;;;;;;8.13;2.45;;;13.30;94.30;;;;;;5031640;28;20064;-71
2021/10/16 09:09:51;;;;;;;13.43;2.83;;;13.40;94.20;;;;;;5030880;28;20045;-72
2021/10/16 09:12:17;;;;;;;7.80;2.50;;;13.40;94.20;;;;;;5030880;28;20057;-69
2021/10/16 09:14:48;;;;;;;10.10;2.53;;;13.50;94.60;;;;;;5030920;28;20037;-69
2021/10/16 09:17:17;;;;;;;19.17;5.07;;;13.60;94.40;;;;;;5031273;28;20029;-70
2021/10/16 09:19:43;;;;;;;10.27;2.40;;;13.50;93.90;;;;;;5031552;28;20522;-71
2021/10/16 09:22:11;;;;;;;8.45;1.95;;;13.60;94.10;;;;;;5031194;28;20026;-70
2021/10/16 09:24:43;;;;;;;13.13;1.90;;;13.60;94.00;;;;;;5030994;28;20045;-71
2021/10/16 09:27:14;;;;;;;9.30;1.65;;;13.60;93.70;;;;;;5048089;28;20063;-70
2021/10/16 09:29:45;;;;;;;10.35;1.67;;;13.60;93.90;;;;;;5051048;28;20029;-74
2021/10/16 09:32:15;;;;;;;9.38;1.83;;;13.50;93.70;;;;;;5050959;28;20454;-73
2021/10/16 09:34:44;;;;;;;11.57;1.90;;;13.40;93.70;;;;;;5050282;28;20061;-72
2021/10/16 09:37:20;;;;;;;8.70;2.05;;;13.50;93.80;;;;;;5051233;28;20049;-73
2021/10/16 09:39:49;;;;;;;6.13;1.38;;;13.60;93.70;;;;;;5051023;28;20064;-74
2021/10/16 09:42:29;;;;;;;10.50;2.00;;;13.50;93.50;;;;;;5031211;28;20051;-72
2021/10/16 09:45:00;;;;;;;11.90;3.80;;;13.40;93.50;;;;;;5030081;28;20057;-72
2021/10/16 09:47:26;;;;;;;16.75;2.95;;;13.30;93.70;;;;;;5031054;28;20060;-71
2021/10/16 09:50:02;;;;;;;7.90;1.52;;;13.40;93.60;;;;;;5031380;28;20033;-73
2021/10/16 09:52:41;;;;;;;4.45;1.42;;;13.40;93.60;;;;;;5031082;28;20025;-73
2021/10/16 09:55:13;;;;;;;8.63;1.42;;;13.20;93.80;;;;;;5030058;28;20172;-73
2021/10/16 09:57:46;;;;;;;6.53;1.45;;;13.40;93.90;;;;;;5031143;28;20685;-73
2021/10/16 10:00:13;;;;;;;6.38;1.17;;;13.50;93.80;;;;;;5030951;28;20103;-72
2021/10/16 10:02:40;;;;;;;3.88;1.23;;;13.60;93.60;;;;;;5031126;28;20117;-73
2021/10/16 10:05:08;;;;;;;11.40;1.70;;;13.80;93.60;;;;;;5030906;28;20029;-72
2021/10/16 10:07:35;;;;;;;12.80;1.92;;;14.00;93.50;;;;;;5031332;28;20033;-72
2021/10/16 10:10:02;;;;;;;5.43;1.10;;;14.40;93.50;;;;;;5030458;28;20053;-72
2021/10/16 10:12:28;;;;;;;4.30;1.20;;;14.80;93.40;;;;;;5030926;28;20120;-72
2021/10/16 10:14:54;;;;;;;7.05;1.55;;;15.10;92.40;;;;;;5030671;28;20151;-72
2021/10/16 10:17:32;;;;;;;10.63;1.63;;;14.90;91.90;;;;;;5030961;28;20029;-72
2021/10/16 10:20:11;;;;;;;18.73;3.05;;;15.00;92.00;;;;;;5030281;28;20045;-72
2021/10/16 10:22:37;;;;;;;15.90;5.35;;;15.30;92.10;;;;;;5031240;28;20038;-72
2021/10/16 10:25:12;;;;;;;6.90;1.65;;;15.30;91.70;;;;;;5032398;28;20041;-72
2021/10/16 10:27:44;;;;;;;8.98;1.83;;;15.50;91.60;;;;;;5034548;28;20029;-72
2021/10/16 10:30:36;;;;;;;10.98;1.95;;;15.50;91.30;;;;;;5034237;28;20029;-73
2021/10/16 10:33:16;;;;;;;6.88;1.90;;;15.20;91.30;;;;;;5034219;28;20025;-74
2021/10/16 10:36:00;;;;;;;9.20;1.60;;;15.20;91.70;;;;;;5034404;28;20053;-73
2021/10/16 10:38:39;;;;;;;8.85;1.42;;;15.30;91.40;;;;;;5034411;28;20388;-72
2021/10/16 10:41:23;;;;;;;4.45;1.27;;;15.20;91.20;;;;;;5033779;28;20101;-72
2021/10/16 10:43:52;;;;;;;8.90;1.73;;;14.70;91.00;;;;;;5034427;28;20025;-72
2021/10/16 10:46:23;;;;;;;9.48;1.67;;;14.80;91.40;;;;;;5033932;28;20116;-73
2021/10/16 10:48:49;;;;;;;10.73;1.50;;;14.80;91.20;;;;;;5034162;28;20387;-73
2021/10/16 10:51:37;;;;;;;4.72;1.55;;;14.80;91.00;;;;;;5033950;28;20087;-73
2021/10/16 10:54:16;;;;;;;9.40;1.63;;;14.60;91.30;;;;;;5032596;28;20037;-72
2021/10/16 10:56:46;;;;;;;4.18;1.38;;;14.70;91.40;;;;;;5032642;28;20042;-75
2021/10/16 10:59:16;;;;;;;7.88;1.80;;;14.80;91.30;;;;;;5032645;28;20025;-73
2021/10/16 11:01:41;;;;;;;7.05;0.80;;;14.70;90.80;;;;;;5034409;28;20021;-73
2021/10/16 11:04:07;;;;;;;7.90;1.35;;;14.50;89.70;;;;;;5033712;28;20478;-73
2021/10/16 11:06:33;;;;;;;7.72;1.05;;;14.40;90.30;;;;;;5034027;28;20053;-72
2021/10/16 11:09:19;;;;;;;5.97;0.98;;;14.30;90.10;;;;;;5033161;28;20061;-72
2021/10/16 11:11:52;;;;;;;6.22;1.58;;;14.50;90.60;;;;;;5033337;28;20056;-73
2021/10/16 11:14:18;;;;;;;5.55;1.70;;;14.70;90.60;;;;;;5033489;28;20665;-72
2021/10/16 11:17:01;;;;;;;4.45;1.20;;;14.80;90.10;;;;;;5033965;28;20044;-73
2021/10/16 11:19:27;;;;;;;9.90;4.25;;;15.00;90.00;;;;;;5033549;28;20463;-74
2021/10/16 11:21:57;;;;;;;10.02;2.50;;;15.20;89.10;;;;;;5033282;28;20041;-73
2021/10/16 11:24:26;;;;;;;8.10;1.77;;;15.40;88.60;;;;;;5032849;28;20030;-76
2021/10/16 11:26:52;;;;;;;6.57;1.30;;;15.90;88.70;;;;;;5033191;28;20348;-75
2021/10/16 11:29:37;;;;;;;5.65;1.77;;;15.90;86.90;;;;;;5033189;28;20033;-74
2021/10/16 11:32:16;;;;;;;6.38;1.30;;;15.80;86.40;;;;;;5033234;28;20032;-74
2021/10/16 11:35:17;;;;;;;5.07;1.10;;;15.80;86.50;;;;;;5033242;28;20117;-74
2021/10/16 11:37:46;;;;;;;4.75;1.20;;;15.80;86.60;;;;;;4972411;28;20488;-72
2021/10/16 11:40:23;;;;;;;17.52;9.23;;;15.70;86.90;;;;;;5021488;28;20045;-74
2021/10/16 11:43:00;;;;;;;14.47;7.27;;;16.00;87.40;;;;;;5033202;28;20352;-75
2021/10/16 11:45:35;;;;;;;13.82;2.50;;;16.00;86.90;;;;;;5032887;28;20090;-75
2021/10/16 11:48:04;;;;;;;5.00;0.93;;;15.90;85.80;;;;;;5033031;28;20098;-71
2021/10/16 11:50:34;;;;;;;10.90;1.00;;;15.60;84.70;;;;;;5032864;28;20359;-72
2021/10/16 11:53:21;;;;;;;3.78;0.65;;;15.40;86.00;;;;;;5033209;28;20108;-73
2021/10/16 11:56:00;;;;;;;8.68;1.08;;;15.20;86.00;;;;;;5032976;28;20045;-72
2021/10/16 11:58:30;;;;;;;6.72;1.40;;;15.30;86.30;;;;;;5032750;28;20406;-74
2021/10/16 12:01:00;;;;;;;5.43;1.40;;;15.00;86.90;;;;;;5032693;28;20037;-73
2021/10/16 12:03:32;;;;;;;7.63;1.30;;;15.10;88.10;;;;;;5032453;28;20465;-71
2021/10/16 12:06:03;;;;;;;4.80;1.33;;;15.00;87.40;;;;;;5032949;28;20033;-72
2021/10/16 12:08:30;;;;;;;8.05;1.55;;;15.10;87.30;;;;;;5031944;28;20040;-71
2021/10/16 12:11:01;;;;;;;7.40;1.73;;;15.00;87.70;;;;;;5032898;28;20371;-72
2021/10/16 12:13:39;;;;;;;10.73;1.50;;;15.00;88.10;;;;;;5032503;28;20107;-73
2021/10/16 12:16:22;;;;;;;7.63;1.50;;;14.70;87.90;;;;;;5032336;28;20702;-71
2021/10/16 12:18:53;;;;;;;13.60;1.73;;;14.80;88.40;;;;;;5032179;28;20367;-72
2021/10/16 12:21:29;;;;;;;5.25;1.48;;;14.80;87.90;;;;;;5032112;28;20113;-72
2021/10/16 12:23:55;;;;;;;5.68;1.27;;;14.60;86.90;;;;;;5032216;28;20120;-74
2021/10/16 12:26:28;;;;;;;8.45;1.13;;;14.70;87.70;;;;;;5032127;28;20040;-73
2021/10/16 12:28:55;;;;;;;7.05;2.42;;;14.70;87.20;;;;;;5032621;28;20025;-73
2021/10/16 12:31:22;;;;;;;2.88;0.93;;;14.50;87.20;;;;;;5031694;28;20136;-73
2021/10/16 12:34:14;;;;;;;6.40;1.20;;;14.60;87.90;;;;;;5030972;28;20399;-73
2021/10/16 12:36:48;;;;;;;3.63;1.33;;;14.60;87.70;;;;;;5031828;28;20399;-73
2021/10/16 12:39:13;;;;;;;6.80;1.42;;;14.70;87.40;;;;;;5031684;28;20067;-74
2021/10/16 12:41:45;;;;;;;5.60;1.30;;;14.70;86.40;;;;;;5031991;28;20056;-74
2021/10/16 12:44:26;;;;;;;3.97;1.15;;;14.80;87.20;;;;;;5031662;28;20029;-72